Date,TemperatureHighF,TemperatureAvgF,TemperatureLowF,DewpointHighF,DewpointAvgF,DewpointLowF,HumidityHigh,HumidityAvg,HumidityLow,PressureMaxIn,PressureMinIn,WindSpeedMaxMPH,WindSpeedAvgMPH,GustSpeedMaxMPH,PrecipitationSumIn
2014-1-1,19,14,7,18,13,5,96,94,92,0.00,40.00,9,6,24,0.00
2014-1-2,25,9,4,11,-4,-100,93,88,54,0.00,40.00,5,1,12,0.00
2014-1-3,31,25,20,13,10,8,74,52,40,0.00,40.00,6,4,20,0.00
2014-1-4,23,10,-2,16,4,-100,95,84,62,0.00,40.00,8,4,22,0.00
2014-1-5,-3,-4,-6,-5,-7,-8,88,87,86,0.00,40.00,7,5,24,0.00
2014-1-6,15,4,-5,13,2,-8,92,90,86,0.00,40.00,5,3,15,0.00
2014-1-7,27,19,11,18,-20,-100,96,95,93,0.00,40.00,6,3,16,0.00
2014-1-8,19,16,14,18,15,12,96,95,94,0.00,40.00,5,3,13,0.00
2014-1-9,16,15,10,15,14,9,95,95,93,0.00,40.00,4,3,12,0.00
2014-1-11,29,27,25,24,-59,-100,96,95,94,0.00,40.00,4,3,12,0.00
2014-1-12,23,12,5,22,10,3,95,92,91,0.00,40.00,10,6,30,0.00
2014-1-13,15,10,5,14,8,3,95,93,91,0.00,40.00,7,4,17,0.00
2014-1-14,14,13,12,13,12,11,94,94,94,0.00,40.00,12,8,30,0.00
2014-1-15,22,14,11,16,-6,-100,94,93,91,0.00,40.00,7,3,18,0.00
2014-1-16,21,14,10,12,10,8,94,84,60,0.00,40.00,5,3,18,0.00
2014-1-17,25,12,8,11,8,6,91,85,54,0.00,40.00,4,2,16,0.00
2014-1-18,29,17,8,13,5,-100,85,67,43,0.00,40.00,5,1,10,0.00
2014-1-19,30,19,12,12,10,8,83,67,43,0.00,40.00,8,2,17,0.00
2014-1-20,28,18,10,9,7,4,78,63,40,0.00,40.00,5,2,15,0.00
2014-1-21,32,19,9,4,-12,-100,79,36,13,0.00,40.00,8,3,21,0.00
2014-1-22,31,19,10,4,-8,-17,64,32,17,0.00,40.00,6,2,12,0.00
2014-1-23,21,11,4,3,-15,-100,86,59,25,0.00,40.00,5,2,9,0.00
2014-1-24,27,12,3,-4,-8,-20,69,43,13,0.00,40.00,6,1,13,0.00
2014-1-25,34,20,11,16,3,-100,69,52,35,0.00,40.00,6,2,15,0.00
2014-1-26,27,19,11,13,9,5,76,64,49,0.00,40.00,7,2,22,0.00
2014-1-27,19,17,16,16,13,9,95,82,70,0.00,40.00,7,5,18,0.00
2014-1-28,11,6,0,3,-2,-6,88,70,53,0.00,40.00,5,3,19,0.00
2014-1-29,23,14,2,20,7,-5,96,71,50,0.00,40.00,5,2,13,0.00
2014-1-30,23,20,16,23,19,15,97,96,95,0.00,40.00,8,2,28,0.00
2014-1-31,20,15,9,19,14,8,97,95,93,0.00,40.00,3,2,9,0.00
2014-2-1,12,5,1,10,0,-100,93,89,89,0.00,40.00,6,2,16,0.00
2014-2-2,22,3,-8,-3,-40,-100,94,89,85,0.00,40.00,4,1,8,0.00
2014-2-3,16,10,6,14,8,4,94,92,91,0.00,40.00,4,2,11,0.00
2014-2-4,14,5,-2,12,3,-5,92,91,88,0.00,40.00,5,2,15,0.00
2014-2-5,4,-1,-7,1,-4,-10,89,88,85,0.00,40.00,6,2,12,0.00
2014-2-6,12,10,9,10,9,7,93,92,91,0.00,40.00,4,3,16,0.00
2014-2-7,17,14,13,15,13,11,94,94,93,0.00,40.00,6,4,23,0.00
2014-2-8,21,18,14,20,16,12,96,95,94,0.00,40.00,7,2,25,0.00
2014-2-9,25,23,20,25,22,19,97,97,97,0.00,40.00,6,3,24,0.00
2014-2-10,24,19,9,23,18,8,97,96,93,0.00,40.00,7,3,20,0.00
2014-2-11,17,9,2,12,6,-1,93,89,75,0.00,40.00,8,2,22,0.00
2014-2-12,22,16,11,19,14,9,97,90,68,0.00,40.00,6,4,17,0.00
2014-2-13,27,24,21,27,23,20,98,98,97,0.00,40.00,7,5,24,0.00
2014-2-14,28,22,16,27,22,15,98,97,95,0.00,40.00,9,6,29,0.00
2014-2-15,30,26,25,28,20,-100,98,87,67,0.00,40.00,11,4,37,0.00
2014-2-16,34,26,17,24,18,14,98,74,47,0.00,40.00,9,4,34,0.00
2014-2-17,36,19,5,14,4,-6,94,61,15,0.00,40.00,5,2,22,0.00
2014-2-18,32,26,20,10,4,-2,52,39,30,0.00,40.00,7,3,24,0.00
2014-2-19,30,22,7,20,8,-2,96,59,30,0.00,40.00,7,4,21,0.00
2014-2-20,8,2,-1,6,0,-3,92,90,89,0.00,40.00,10,6,26,0.00
2014-2-21,16,8,3,15,6,1,94,92,90,0.00,40.00,6,4,23,0.00
2014-2-22,20,15,13,15,8,-100,94,82,58,0.00,40.00,7,4,21,0.00
2014-2-23,33,20,15,13,10,7,91,66,37,0.00,40.00,8,4,29,0.00
2014-2-24,32,25,22,12,8,5,61,50,38,0.00,40.00,7,3,23,0.00
2014-2-25,33,27,23,21,13,8,85,55,42,0.00,40.00,7,4,28,0.00
2014-2-26,32,21,16,20,14,6,95,76,36,0.00,40.00,6,2,16,0.00
2014-2-27,27,22,19,24,18,10,97,86,64,0.00,40.00,3,1,13,0.00
2014-2-28,25,22,19,23,20,17,97,92,72,0.00,40.00,6,4,18,0.00
2014-3-1,27,24,20,25,20,-100,97,92,84,0.00,40.00,5,2,19,0.00
2014-3-2,27,20,17,19,18,16,96,91,71,0.00,40.00,5,2,14,0.00
2014-3-3,30,21,16,18,16,13,92,82,58,0.00,40.00,6,2,18,0.00
2014-3-4,28,19,14,22,17,12,97,90,74,0.00,40.00,6,2,15,0.00
2014-3-5,30,20,14,19,13,8,97,79,40,0.00,40.00,5,3,14,0.00
2014-3-6,39,27,16,18,11,8,72,52,30,0.00,40.00,6,2,17,0.00
2014-3-7,26,22,17,24,20,16,96,93,78,0.00,40.00,7,2,14,0.00
2014-3-8,31,18,9,16,9,-100,94,78,49,0.00,40.00,3,1,13,0.00
2014-3-9,11,11,11,9,9,9,91,90,90,0.00,40.00,0,0,2,0.00
2014-3-10,45,33,21,2,-6,-12,31,19,9,0.00,40.00,7,3,22,0.00
2014-3-11,33,19,5,20,11,-2,96,75,22,0.00,40.00,8,4,24,0.00
2014-3-12,32,13,-1,7,1,-4,90,64,27,0.00,40.00,5,2,11,0.00
2014-3-13,30,18,11,16,8,1,73,62,42,0.00,40.00,6,2,22,0.00
2014-3-14,35,23,10,17,9,0,94,62,26,0.00,40.00,6,2,17,0.00
2014-3-15,22,16,10,15,8,-100,95,80,52,0.00,40.00,8,4,25,0.00
2014-4-3,21,16,11,15,10,7,90,76,58,0.00,40.00,5,3,15,0.00
2014-4-4,29,15,5,16,9,3,93,80,43,0.00,40.00,6,1,16,0.00
2014-4-5,32,19,12,21,11,-100,94,83,38,0.00,40.00,3,1,11,0.00
2014-4-6,26,20,17,20,17,13,96,87,58,0.00,40.00,7,3,21,0.00
2014-4-7,23,19,16,21,17,15,97,93,75,0.00,40.00,7,5,19,0.00
2014-4-8,40,28,21,25,22,20,97,78,44,0.00,40.00,5,3,16,0.00
2014-4-9,26,26,26,19,19,19,73,73,73,0.00,40.00,1,1,2,0.00
2014-6-5,56,49,42,25,22,18,49,36,23,0.00,40.00,5,2,16,0.00
2014-6-6,56,46,36,36,26,17,91,50,21,0.00,40.00,6,2,21,0.00
2014-6-7,59,45,36,30,17,-100,67,39,17,0.00,40.00,5,2,26,0.00
2014-6-8,50,37,31,32,31,25,99,80,38,0.00,40.00,7,3,22,0.00
2014-6-9,51,36,24,30,27,23,99,73,34,0.00,40.00,6,3,17,0.00
2014-6-10,56,45,33,32,26,19,77,49,24,0.00,40.00,8,3,22,0.00
2014-6-11,54,48,40,34,29,26,76,50,34,0.00,40.00,8,3,26,0.00
2014-6-12,56,44,32,33,28,22,92,59,27,0.00,40.00,8,3,23,0.00
2014-6-13,60,51,40,32,22,14,72,37,16,0.00,40.00,8,3,23,0.00
2014-6-14,54,44,36,27,12,-100,58,33,18,0.00,40.00,6,3,26,0.00
2014-6-15,53,41,27,22,17,11,77,42,19,0.00,40.00,6,3,22,0.00
2014-6-16,56,48,40,16,12,8,32,24,18,0.00,40.00,9,4,25,0.00
2014-6-17,59,51,42,22,16,9,33,25,19,0.00,40.00,7,4,26,0.00
2014-6-18,54,44,33,33,24,19,78,49,24,0.00,40.00,5,3,20,0.00
2014-6-19,57,43,29,30,24,15,94,53,22,0.00,40.00,5,3,19,0.00
2014-6-20,62,48,33,26,21,17,66,38,19,0.00,40.00,5,2,18,0.00
2014-6-21,60,48,40,33,20,-100,52,39,22,0.00,40.00,5,2,19,0.00
2014-6-22,57,47,39,37,30,26,75,52,33,0.00,40.00,5,2,20,0.00
2014-6-23,59,46,38,36,30,20,74,55,23,0.00,40.00,5,2,21,0.00
2014-6-24,60,50,39,33,28,22,76,46,23,0.00,40.00,7,3,23,0.00
2014-6-25,63,52,39,33,27,20,74,43,20,0.00,40.00,5,2,22,0.00
2014-6-26,66,55,43,25,20,12,41,27,14,0.00,40.00,5,3,19,0.00
2014-6-27,53,46,38,35,28,17,74,51,24,0.00,40.00,6,3,23,0.00
2014-6-28,57,43,36,35,25,-100,94,59,29,0.00,40.00,6,4,21,0.00
2014-6-29,67,56,41,28,25,21,48,31,20,0.00,40.00,6,3,22,0.00
2014-6-30,65,56,47,30,26,23,44,32,21,0.00,40.00,8,3,29,0.00
2014-7-1,63,49,37,33,25,9,79,45,13,0.00,40.00,6,2,19,0.00
2014-7-2,65,52,39,37,30,21,89,51,18,0.00,40.00,5,2,15,0.00
2014-7-3,68,55,42,38,30,24,76,43,22,0.00,40.00,5,2,19,0.00
2014-7-4,64,52,44,39,36,33,74,56,33,0.00,40.00,5,2,17,0.00
2014-7-5,69,51,42,37,27,-100,80,49,23,0.00,40.00,4,2,14,0.00
2014-7-6,65,54,45,39,35,32,64,49,31,0.00,40.00,3,1,11,0.00
2014-7-7,68,55,47,36,31,25,60,42,21,0.00,40.00,4,1,14,0.00
2014-7-8,67,57,46,41,35,31,77,47,25,0.00,40.00,6,3,25,0.00
2014-7-9,64,54,44,39,34,29,71,51,27,0.00,40.00,5,2,16,0.00
2014-7-10,64,51,44,46,39,35,89,64,38,0.00,40.00,4,2,14,0.00
2014-7-11,63,50,43,50,45,42,95,81,50,0.00,40.00,3,2,16,0.00
2014-7-12,64,51,43,47,41,39,96,67,39,0.00,40.00,6,3,19,0.00
2014-7-13,65,55,43,45,41,35,93,62,33,0.00,40.00,5,2,16,0.00
2014-7-14,65,54,44,43,38,32,84,57,28,0.00,40.00,4,2,14,0.00
2014-7-15,62,52,42,45,41,37,94,69,39,0.00,40.00,5,2,19,0.00
2014-7-16,58,48,41,44,42,38,95,80,48,0.00,40.00,5,2,25,0.00
2014-7-17,58,47,37,40,38,36,97,74,45,0.00,40.00,5,2,16,0.00
2014-7-18,61,49,40,40,37,35,87,66,39,0.00,40.00,7,2,22,0.00
2014-7-19,65,52,44,39,32,29,71,49,26,0.00,40.00,7,2,22,0.00
2014-7-20,67,57,46,41,33,31,84,43,25,0.00,40.00,6,3,22,0.00
2014-7-21,66,53,43,39,36,33,85,56,30,0.00,40.00,4,2,16,0.00
2014-7-22,72,58,46,37,30,23,54,36,16,0.00,40.00,5,2,13,0.00
2014-7-23,69,56,48,44,38,32,82,53,27,0.00,40.00,4,2,21,0.00
2014-7-24,65,57,50,43,41,39,66,55,41,0.00,40.00,5,2,17,0.00
2014-7-25,61,52,45,47,43,39,84,71,53,0.00,40.00,5,2,15,0.00
2014-7-26,63,48,44,49,41,38,95,74,40,0.00,40.00,3,1,12,0.00
2014-7-27,66,50,40,48,42,35,97,77,32,0.00,40.00,3,1,13,0.00
2014-7-28,61,48,43,47,43,40,96,84,52,0.00,40.00,3,1,10,0.00
2014-7-29,52,46,43,47,44,42,96,92,78,0.00,40.00,4,2,12,0.00
2014-7-30,53,47,43,46,44,42,96,89,72,0.00,40.00,4,1,17,0.00
2014-7-31,54,46,42,46,40,41,97,90,66,0.00,40.00,4,1,11,0.00
2014-8-1,56,44,39,44,41,38,96,89,64,0.00,40.00,3,1,12,0.00
2014-8-2,65,44,32,40,33,26,97,73,22,0.00,40.00,3,1,12,0.00
2014-8-3,66,52,41,41,38,33,90,61,29,0.00,40.00,3,1,9,0.00
2014-8-4,57,49,45,46,41,39,94,74,58,0.00,40.00,4,1,14,0.00
2014-8-5,58,50,43,44,42,39,97,76,50,0.00,40.00,4,2,17,0.00
2014-8-6,61,49,40,44,39,35,96,72,37,0.00,40.00,5,2,19,0.00
2014-8-7,59,49,42,43,38,35,80,67,40,0.00,40.00,6,2,24,0.00
2014-8-8,61,50,38,37,31,23,87,53,24,0.00,40.00,6,2,18,0.00
2014-8-9,56,47,40,37,34,30,78,61,43,0.00,40.00,7,2,21,0.00
2014-8-10,59,45,37,44,37,33,93,75,41,0.00,40.00,3,1,9,0.00
2014-8-11,67,47,37,39,36,27,96,72,26,0.00,40.00,3,1,10,0.00
2014-8-12,66,51,41,39,36,32,84,61,28,0.00,40.00,3,2,13,0.00
2014-8-13,64,51,44,51,42,38,90,71,40,0.00,40.00,3,1,11,0.00
2014-8-14,54,48,43,46,44,42,96,88,69,0.00,40.00,7,2,18,0.00
2014-8-15,62,50,41,45,40,35,95,73,37,0.00,40.00,5,1,21,0.00
2014-8-16,64,52,42,39,34,25,87,57,22,0.00,40.00,5,1,16,0.00
2014-8-17,66,53,43,33,31,28,64,45,23,0.00,40.00,6,2,20,0.00
2014-8-18,63,53,43,36,31,29,60,45,29,0.00,40.00,5,2,17,0.00
2014-8-19,62,49,44,43,36,30,91,62,35,0.00,40.00,4,2,21,0.00
2014-8-20,55,46,42,44,42,38,97,88,63,0.00,40.00,6,2,21,0.00
2014-8-21,55,44,38,40,39,37,96,81,49,0.00,40.00,3,1,14,0.00
2014-8-22,53,47,41,42,40,36,90,79,65,0.00,40.00,3,1,13,0.00
2014-8-23,49,40,36,40,36,32,95,82,68,0.00,40.00,6,2,18,0.00
2014-8-24,57,45,34,35,31,24,87,61,40,0.00,40.00,6,2,21,0.00
2014-8-25,57,45,38,40,35,33,87,69,43,0.00,40.00,5,2,23,0.00
2014-8-26,58,45,40,43,39,34,96,80,43,0.00,40.00,4,2,17,0.00
2014-8-27,48,42,37,41,39,36,97,91,72,0.00,40.00,4,2,17,0.00
2014-8-28,43,38,36,40,37,36,98,96,90,0.00,40.00,5,2,13,0.00
2014-8-29,54,43,38,39,37,34,96,80,53,0.00,40.00,4,1,20,0.00
2014-8-30,57,42,36,40,34,32,90,71,40,0.00,40.00,5,2,19,0.00
2014-8-31,56,47,42,41,34,23,89,62,28,0.00,40.00,6,2,26,0.00